createdAt,value
2023-05-02T00:02:09.960Z,5.70
2023-05-02T00:04:38.426Z,6.40
2023-05-02T00:07:20.994Z,7.57
2023-05-02T00:09:58.388Z,6.73
2023-05-02T00:12:31.136Z,6.60
2023-05-02T00:14:59.324Z,5.37
2023-05-02T00:17:27.590Z,8.43
2023-05-02T00:19:58.450Z,6.80
2023-05-02T00:22:28.453Z,6.30
2023-05-02T00:24:58.475Z,6.03
2023-05-02T00:27:28.016Z,4.97
2023-05-02T00:29:59.473Z,5.43
2023-05-02T00:32:28.345Z,5.80
2023-05-02T00:34:57.050Z,5.70
2023-05-02T00:37:28.690Z,5.57
2023-05-02T00:40:00.485Z,7.20
2023-05-02T00:42:31.673Z,6.10
2023-05-02T00:45:06.919Z,7.03
2023-05-02T00:47:35.461Z,10.53
2023-05-02T00:50:06.828Z,5.30
2023-05-02T00:52:38.377Z,6.10
2023-05-02T00:55:10.375Z,6.50
2023-05-02T00:57:39.948Z,5.27
2023-05-02T01:00:10.713Z,7.20
2023-05-02T01:02:50.132Z,5.33
2023-05-02T01:05:22.309Z,6.57
2023-05-02T01:08:12.716Z,5.70
2023-05-02T01:10:50.179Z,6.47
2023-05-02T01:13:25.901Z,5.80
2023-05-02T01:15:56.068Z,4.53
2023-05-02T01:18:27.373Z,6.10
2023-05-02T01:21:03.520Z,5.80
2023-05-02T01:23:39.446Z,5.83
2023-05-02T01:26:17.641Z,5.57
2023-05-02T01:28:59.486Z,7.80
2023-05-02T01:31:33.541Z,4.97
2023-05-02T01:34:03.601Z,5.43
2023-05-02T01:36:33.866Z,4.80
2023-05-02T01:39:03.577Z,7.57
2023-05-02T01:41:33.548Z,4.83
2023-05-02T01:44:04.688Z,6.20
2023-05-02T01:46:35.489Z,7.10
2023-05-02T01:49:07.110Z,6.33
2023-05-02T01:51:37.406Z,5.93
2023-05-02T01:54:10.147Z,4.73
2023-05-02T01:56:40.461Z,4.90
2023-05-02T01:59:12.570Z,4.87
2023-05-02T02:01:43.629Z,5.00
2023-05-02T02:04:16.092Z,6.73
2023-05-02T02:06:49.968Z,5.67
2023-05-02T02:09:18.454Z,4.97
2023-05-02T02:12:00.268Z,4.60
2023-05-02T02:14:35.937Z,6.40
2023-05-02T02:17:12.814Z,5.57
2023-05-02T02:19:42.626Z,4.93
2023-05-02T02:22:14.690Z,6.50
2023-05-02T02:24:44.036Z,5.40
2023-05-02T02:27:12.184Z,5.30
2023-05-02T02:29:53.649Z,6.17
2023-05-02T02:32:21.921Z,6.10
2023-05-02T02:34:53.067Z,5.43
2023-05-02T02:37:32.311Z,4.87
2023-05-02T02:40:06.912Z,4.80
2023-05-02T02:42:41.058Z,6.27
2023-05-02T02:45:26.208Z,6.50
2023-05-02T02:48:08.496Z,5.40
2023-05-02T02:50:52.770Z,5.47
2023-05-02T02:53:27.191Z,5.00
2023-05-02T02:56:03.044Z,5.07
2023-05-02T02:58:51.263Z,5.50
2023-05-02T03:01:25.371Z,5.50
2023-05-02T03:03:56.593Z,5.90
2023-05-02T03:06:27.056Z,4.80
2023-05-02T03:08:56.611Z,6.77
2023-05-02T03:11:30.786Z,5.80
2023-05-02T03:14:11.883Z,5.80
2023-05-02T03:16:47.782Z,6.60
2023-05-02T03:19:21.538Z,6.73
2023-05-02T03:21:50.557Z,5.90
2023-05-02T03:24:23.159Z,5.27
2023-05-02T03:26:51.525Z,7.00
2023-05-02T03:29:25.753Z,6.63
2023-05-02T03:31:57.902Z,5.67
2023-05-02T03:34:26.656Z,4.87
2023-05-02T03:36:58.457Z,6.30
2023-05-02T03:39:27.307Z,5.50
2023-05-02T03:41:55.590Z,6.17
2023-05-02T03:44:25.608Z,6.10
2023-05-02T03:46:53.960Z,4.77
2023-05-02T03:49:23.699Z,5.90
2023-05-02T03:51:55.387Z,8.23
2023-05-02T03:54:33.819Z,4.30
2023-05-02T03:57:05.362Z,5.00
2023-05-02T03:59:35.247Z,5.10
2023-05-02T04:02:11.436Z,5.97
2023-05-02T04:04:48.522Z,4.97
2023-05-02T04:07:19.955Z,4.63
2023-05-02T04:09:59.266Z,5.23
2023-05-02T04:12:28.235Z,4.60
2023-05-02T04:15:23.058Z,4.77
2023-05-02T04:17:53.283Z,5.73
2023-05-02T04:20:23.639Z,4.87
2023-05-02T04:22:54.472Z,6.17
2023-05-02T04:25:24.378Z,6.00
2023-05-02T04:27:55.370Z,4.83
2023-05-02T04:30:25.141Z,5.30
2023-05-02T04:33:07.859Z,8.00
2023-05-02T04:35:42.928Z,5.40
2023-05-02T04:38:14.354Z,5.50
2023-05-02T04:40:44.974Z,5.90
2023-05-02T04:43:15.214Z,4.17
2023-05-02T04:45:58.771Z,4.30
2023-05-02T04:48:30.856Z,5.23
2023-05-02T04:51:00.700Z,5.50
2023-05-02T04:53:34.517Z,5.33
2023-05-02T04:56:02.796Z,8.00
2023-05-02T04:58:32.991Z,6.20
2023-05-02T05:01:04.333Z,5.80
2023-05-02T05:03:33.347Z,5.50
2023-05-02T05:06:03.728Z,5.67
2023-05-02T05:08:32.880Z,5.07
2023-05-02T05:11:01.873Z,8.50
2023-05-02T05:13:33.029Z,5.03
2023-05-02T05:16:02.166Z,5.10
2023-05-02T05:18:40.342Z,5.03
2023-05-02T05:21:14.920Z,5.23
2023-05-02T05:23:46.200Z,5.43
2023-05-02T05:26:18.636Z,6.23
2023-05-02T05:28:50.736Z,8.20
2023-05-02T05:31:31.351Z,5.90
2023-05-02T05:34:01.597Z,6.40
2023-05-02T05:36:32.496Z,7.50
2023-05-02T05:39:01.365Z,8.50
2023-05-02T05:41:30.682Z,7.17
2023-05-02T05:44:04.369Z,7.70
2023-05-02T05:46:36.181Z,8.00
2023-05-02T05:49:06.456Z,8.67
2023-05-02T05:51:37.057Z,7.03
2023-05-02T05:54:05.746Z,6.87
2023-05-02T05:56:34.102Z,6.90
2023-05-02T05:59:09.574Z,7.53
2023-05-02T06:01:38.205Z,5.40
2023-05-02T06:04:07.510Z,6.00
2023-05-02T06:06:40.273Z,10.77
2023-05-02T06:09:09.054Z,8.03
2023-05-02T06:11:40.452Z,5.57
2023-05-02T06:14:09.438Z,7.17
2023-05-02T06:16:38.080Z,6.60
2023-05-02T06:19:07.512Z,6.60
2023-05-02T06:21:39.216Z,5.70
2023-05-02T06:24:08.385Z,6.90
2023-05-02T06:26:36.759Z,6.57
2023-05-02T06:29:04.926Z,6.97
2023-05-02T06:31:33.164Z,7.57
2023-05-02T06:34:01.392Z,8.00
2023-05-02T06:36:30.028Z,6.00
2023-05-02T06:38:59.562Z,6.97
2023-05-02T06:41:27.752Z,6.23
2023-05-02T06:43:56.040Z,6.23
2023-05-02T06:46:30.877Z,8.50
2023-05-02T06:48:59.151Z,7.00
2023-05-02T06:51:27.833Z,7.77
2023-05-02T06:53:56.048Z,6.83
2023-05-02T06:56:28.983Z,6.07
2023-05-02T07:01:57.999Z,8.20
2023-05-02T07:04:26.404Z,7.20
2023-05-02T07:06:57.102Z,7.63
2023-05-02T07:09:25.428Z,8.57
2023-05-02T07:11:55.144Z,6.63
2023-05-02T07:14:32.690Z,7.00
2023-05-02T07:17:01.354Z,7.57
2023-05-02T07:19:38.597Z,6.47
2023-05-02T07:22:14.524Z,6.03
2023-05-02T07:24:43.648Z,7.27
2023-05-02T07:27:39.090Z,6.33
2023-05-02T07:30:11.050Z,6.90
2023-05-02T07:32:43.014Z,6.30
2023-05-02T07:35:14.635Z,5.53
2023-05-02T07:40:25.357Z,4.60
2023-05-02T07:42:55.213Z,5.40
2023-05-02T07:45:23.571Z,5.13
2023-05-02T07:47:51.802Z,5.57
2023-05-02T07:50:20.125Z,5.90
2023-05-02T07:52:48.324Z,6.77
2023-05-02T07:55:16.672Z,7.00
2023-05-02T07:57:44.970Z,5.80
2023-05-02T08:00:16.339Z,7.33
2023-05-02T08:02:45.482Z,5.50
2023-05-02T08:05:14.079Z,6.87
2023-05-02T08:07:44.902Z,6.27
2023-05-02T08:10:13.200Z,5.50
2023-05-02T08:12:41.769Z,5.63
2023-05-02T08:15:12.944Z,5.50
2023-05-02T08:17:44.882Z,6.60
2023-05-02T08:20:13.520Z,5.37
2023-05-02T08:22:41.724Z,6.00
2023-05-02T08:25:10.516Z,6.20
2023-05-02T08:27:38.769Z,5.83
2023-05-02T08:30:09.031Z,5.33
2023-05-02T08:32:38.134Z,6.90
2023-05-02T08:35:08.948Z,7.10
2023-05-02T08:37:40.894Z,5.73
2023-05-02T08:40:13.866Z,6.17
2023-05-02T08:42:45.034Z,6.10
2023-05-02T08:45:16.779Z,6.00
2023-05-02T08:47:46.911Z,7.70
2023-05-02T08:50:18.880Z,6.43
2023-05-02T08:52:48.144Z,6.27
2023-05-02T08:55:17.015Z,6.70
2023-05-02T08:57:45.569Z,8.63
2023-05-02T09:00:14.954Z,6.03
2023-05-02T09:02:58.281Z,6.83
2023-05-02T09:05:34.688Z,6.23
2023-05-02T09:08:03.002Z,6.87
2023-05-02T09:10:32.463Z,6.60
2023-05-02T09:13:31.985Z,8.10
2023-05-02T09:16:02.285Z,6.07
2023-05-02T09:18:32.175Z,7.70
2023-05-02T09:21:06.473Z,7.90
2023-05-02T09:23:42.806Z,7.20
2023-05-02T09:26:18.059Z,6.83
2023-05-02T09:28:47.910Z,6.70
2023-05-02T09:31:27.019Z,7.20
2023-05-02T09:34:10.623Z,5.53
2023-05-02T09:36:43.268Z,5.33
2023-05-02T09:39:13.685Z,6.53
2023-05-02T09:41:42.773Z,9.17
2023-05-02T09:44:15.470Z,6.23
2023-05-02T09:46:44.773Z,7.20
2023-05-02T09:49:14.777Z,6.90
2023-05-02T09:51:47.408Z,6.17
2023-05-02T09:54:16.073Z,6.27
2023-05-02T09:56:56.605Z,5.77
2023-05-02T09:59:26.001Z,6.57
2023-05-02T10:01:58.485Z,6.50
2023-05-02T10:04:27.858Z,6.73
2023-05-02T10:06:58.626Z,5.47
2023-05-02T10:09:28.350Z,7.10
2023-05-02T10:11:57.979Z,6.03
2023-05-02T10:14:29.544Z,6.90
2023-05-02T10:17:02.808Z,7.33
2023-05-02T10:19:42.953Z,6.93
2023-05-02T10:22:13.910Z,8.37
2023-05-02T10:24:43.000Z,8.40
2023-05-02T10:27:11.280Z,8.23
2023-05-02T10:29:41.743Z,7.27
2023-05-02T10:32:11.064Z,7.83
2023-05-02T10:34:41.496Z,6.27
2023-05-02T10:37:13.645Z,7.67
2023-05-02T10:39:41.897Z,7.10
2023-05-02T10:42:11.088Z,5.63
2023-05-02T10:44:41.285Z,5.80
2023-05-02T10:47:22.742Z,7.97
2023-05-02T10:49:52.510Z,8.20
2023-05-02T10:52:30.265Z,7.80
2023-05-02T10:55:19.430Z,5.80
2023-05-02T10:58:24.802Z,6.30
2023-05-02T11:00:55.460Z,9.43
2023-05-02T11:04:02.238Z,7.17
2023-05-02T11:06:33.549Z,6.10
2023-05-02T11:09:37.708Z,5.07
2023-05-02T11:12:06.518Z,5.60
2023-05-02T11:14:47.454Z,7.63
2023-05-02T11:17:16.127Z,6.10
2023-05-02T11:20:30.037Z,6.60
2023-05-02T11:23:22.888Z,6.87
2023-05-02T11:26:02.186Z,7.40
2023-05-02T11:28:48.449Z,8.00
2023-05-02T11:32:04.988Z,6.87
2023-05-02T11:34:43.826Z,6.90
2023-05-02T11:37:18.482Z,9.50
2023-05-02T11:39:47.695Z,7.73
2023-05-02T11:42:37.480Z,8.47
2023-05-02T11:45:07.902Z,9.30
2023-05-02T11:47:46.292Z,8.70
2023-05-02T11:50:14.678Z,6.50
2023-05-02T11:52:44.875Z,8.50
2023-05-02T11:55:15.936Z,6.00
2023-05-02T11:57:45.445Z,6.40
2023-05-02T12:00:15.249Z,8.37
2023-05-02T12:02:45.076Z,6.03
2023-05-02T12:05:14.581Z,6.63
2023-05-02T12:07:44.985Z,7.10
2023-05-02T12:10:14.585Z,8.97
2023-05-02T12:12:44.342Z,6.80
2023-05-02T12:15:14.257Z,8.63
2023-05-02T12:17:44.400Z,7.67
2023-05-02T12:20:17.129Z,8.27
2023-05-02T12:22:45.691Z,11.03
2023-05-02T12:25:14.034Z,6.07
2023-05-02T12:27:42.279Z,9.10
2023-05-02T12:30:26.151Z,7.87
2023-05-02T12:32:59.843Z,10.80
2023-05-02T12:35:28.676Z,10.17
2023-05-02T12:38:11.320Z,8.77
2023-05-02T12:40:41.121Z,7.83
2023-05-02T12:43:10.751Z,7.47
2023-05-02T12:45:41.753Z,7.17
2023-05-02T12:48:27.507Z,6.30
2023-05-02T12:50:56.535Z,8.63
2023-05-02T12:53:41.167Z,7.47
2023-05-02T12:56:10.526Z,5.07
2023-05-02T12:58:43.794Z,6.00
2023-05-02T13:01:16.175Z,6.43
2023-05-02T13:03:46.014Z,5.53
2023-05-02T13:06:14.369Z,5.10
2023-05-02T13:08:47.114Z,5.07
2023-05-02T13:11:15.754Z,5.97
2023-05-02T13:13:43.927Z,6.50
2023-05-02T13:16:12.246Z,7.30
2023-05-02T13:18:40.737Z,4.93
2023-05-02T13:21:10.336Z,5.60
2023-05-02T13:23:39.917Z,6.13
2023-05-02T13:26:08.141Z,4.63
2023-05-02T13:28:37.519Z,7.23
2023-05-02T13:31:06.196Z,6.87
2023-05-02T13:33:34.457Z,5.60
2023-05-02T13:36:02.585Z,6.23
2023-05-02T13:38:32.593Z,5.40
2023-05-02T13:41:00.768Z,4.43
2023-05-02T13:43:29.005Z,5.60
2023-05-02T13:45:57.610Z,6.23
2023-05-02T13:48:26.099Z,6.30
2023-05-02T13:50:54.298Z,4.60
2023-05-02T13:53:22.891Z,4.93
2023-05-02T13:55:52.503Z,4.10
2023-05-02T13:58:21.393Z,4.53
2023-05-02T14:00:49.675Z,4.00
2023-05-02T14:03:19.074Z,4.83
2023-05-02T14:05:47.327Z,5.40
2023-05-02T14:08:18.513Z,4.73
2023-05-02T14:10:47.209Z,5.73
2023-05-02T14:13:17.190Z,5.83
2023-05-02T14:15:46.797Z,5.17
2023-05-02T14:18:22.769Z,4.97
2023-05-02T14:20:53.948Z,5.03
2023-05-02T14:23:34.604Z,4.47
2023-05-02T14:26:04.408Z,4.90
2023-05-02T14:28:36.277Z,4.73
2023-05-02T14:31:06.319Z,7.17
2023-05-02T14:33:41.488Z,5.23
2023-05-02T14:36:13.203Z,5.00
2023-05-02T14:38:48.237Z,4.77
2023-05-02T14:41:17.640Z,5.93
2023-05-02T14:43:48.421Z,5.10
2023-05-02T14:46:20.455Z,4.60
2023-05-02T14:48:48.803Z,5.27
2023-05-02T14:51:17.038Z,5.20
2023-05-02T14:53:45.346Z,4.93
2023-05-02T14:56:15.954Z,4.13
2023-05-02T14:58:48.642Z,5.23
2023-05-02T15:01:18.346Z,4.70
2023-05-02T15:04:04.572Z,5.40
2023-05-02T15:06:35.251Z,4.87
2023-05-02T15:09:06.420Z,4.77
2023-05-02T15:11:34.654Z,4.40
2023-05-02T15:14:04.234Z,4.90
2023-05-02T15:16:32.461Z,5.87
2023-05-02T15:19:03.098Z,6.07
2023-05-02T15:21:32.095Z,4.53
2023-05-02T15:24:00.332Z,6.70
2023-05-02T15:26:28.803Z,5.10
2023-05-02T15:29:00.147Z,4.87
2023-05-02T15:31:29.924Z,5.60
2023-05-02T15:33:58.396Z,6.33
2023-05-02T15:36:29.063Z,4.70
2023-05-02T15:38:57.382Z,6.07
2023-05-02T15:41:27.174Z,4.90
2023-05-02T15:43:55.473Z,4.93
2023-05-02T15:46:23.736Z,3.23
2023-05-02T15:48:53.624Z,5.03
2023-05-02T15:51:24.494Z,4.40
2023-05-02T15:53:55.096Z,4.63
2023-05-02T15:56:23.371Z,4.80
2023-05-02T15:58:54.349Z,5.40
2023-05-02T16:01:24.211Z,6.37
2023-05-02T16:03:56.423Z,4.30
2023-05-02T16:06:27.879Z,4.20
2023-05-02T16:08:56.601Z,4.07
2023-05-02T16:11:24.860Z,4.20
2023-05-02T16:13:53.239Z,4.60
2023-05-02T16:16:21.666Z,5.30
2023-05-02T16:18:57.745Z,4.97
2023-05-02T16:21:26.169Z,4.77
2023-05-02T16:24:06.333Z,3.60
2023-05-02T16:26:34.732Z,3.67
2023-05-02T16:29:03.323Z,3.77
2023-05-02T16:31:36.905Z,5.80
2023-05-02T16:34:06.569Z,4.50
2023-05-02T16:36:36.907Z,4.37
2023-05-02T16:39:07.905Z,4.50
2023-05-02T16:41:37.107Z,5.60
2023-05-02T16:44:08.313Z,5.07
2023-05-02T16:46:39.604Z,4.27
2023-05-02T16:49:09.249Z,4.83
2023-05-02T16:51:37.607Z,5.13
2023-05-02T16:54:06.275Z,5.43
2023-05-02T16:56:34.610Z,3.97
2023-05-02T16:59:02.906Z,5.17
2023-05-02T17:01:31.212Z,5.20
2023-05-02T17:03:59.506Z,4.63
2023-05-02T17:06:29.340Z,8.70
2023-05-02T17:08:57.613Z,4.33
2023-05-02T17:11:26.809Z,4.73
2023-05-02T17:13:55.060Z,4.20
2023-05-02T17:16:23.295Z,4.73
2023-05-02T17:18:51.495Z,4.00
2023-05-02T17:21:20.107Z,4.30
2023-05-02T17:23:49.872Z,4.37
2023-05-02T17:26:21.137Z,4.93
2023-05-02T17:28:50.341Z,4.30
2023-05-02T17:31:19.080Z,8.10
2023-05-02T17:33:47.584Z,5.67
2023-05-02T17:36:16.081Z,4.70
2023-05-02T17:38:45.149Z,4.33
2023-05-02T17:41:15.424Z,4.50
2023-05-02T17:43:47.403Z,4.77
2023-05-02T17:46:16.077Z,5.03
2023-05-02T17:48:44.529Z,4.87
2023-05-02T17:51:12.917Z,4.33
2023-05-02T17:53:41.231Z,4.83
2023-05-02T17:56:10.638Z,6.47
2023-05-02T17:58:40.175Z,7.43
2023-05-02T18:01:13.996Z,4.00
2023-05-02T18:03:54.891Z,4.97
2023-05-02T18:06:23.378Z,5.93
2023-05-02T18:08:56.486Z,5.00
2023-05-02T18:11:26.802Z,5.40
2023-05-02T18:13:57.286Z,4.43
2023-05-02T18:16:25.623Z,3.73
2023-05-02T18:18:55.223Z,4.90
2023-05-02T18:21:28.259Z,5.40
2023-05-02T18:23:58.806Z,5.20
2023-05-02T18:26:27.022Z,3.80
2023-05-02T18:28:57.648Z,4.30
2023-05-02T18:31:26.378Z,5.13
2023-05-02T18:33:56.250Z,4.70
2023-05-02T18:36:29.480Z,4.00
2023-05-02T18:38:57.745Z,5.50
2023-05-02T18:41:25.990Z,4.73
2023-05-02T18:43:54.629Z,6.00
2023-05-02T18:46:22.817Z,4.00
2023-05-02T18:48:51.058Z,5.20
2023-05-02T18:51:20.877Z,5.20
2023-05-02T18:53:49.677Z,4.50
2023-05-02T18:56:18.079Z,6.03
2023-05-02T18:58:54.804Z,4.93
2023-05-02T19:01:28.032Z,3.97
2023-05-02T19:03:58.655Z,4.00
2023-05-02T19:06:31.589Z,3.57
2023-05-02T19:09:05.928Z,5.83
2023-05-02T19:11:34.176Z,8.43
2023-05-02T19:14:03.676Z,7.33
2023-05-02T19:16:32.015Z,8.10
2023-05-02T19:19:00.568Z,7.07
2023-05-02T19:21:30.259Z,7.50
2023-05-02T19:23:58.647Z,9.60
2023-05-02T19:26:27.088Z,6.67
2023-05-02T19:28:58.286Z,7.23
2023-05-02T19:31:39.670Z,7.47
2023-05-02T19:34:19.573Z,7.20
2023-05-02T19:36:52.242Z,9.10
2023-05-02T19:39:20.736Z,10.73
2023-05-02T19:41:50.036Z,5.30
2023-05-02T19:44:18.392Z,6.30
2023-05-02T19:46:46.589Z,5.60
2023-05-02T19:49:14.772Z,7.57
2023-05-02T19:51:43.084Z,7.27
2023-05-02T19:54:12.793Z,6.23
2023-05-02T19:56:42.267Z,6.80
2023-05-02T19:59:10.493Z,6.47
2023-05-02T20:01:38.717Z,5.73
2023-05-02T20:04:07.089Z,4.53
2023-05-02T20:06:35.439Z,5.10
2023-05-02T20:09:03.797Z,4.43
2023-05-02T20:11:33.307Z,5.40
2023-05-02T20:14:01.474Z,6.13
2023-05-02T20:16:31.478Z,4.90
2023-05-02T20:18:59.909Z,5.43
2023-05-02T20:21:27.995Z,4.00
2023-05-02T20:23:56.219Z,4.10
2023-05-02T20:26:24.385Z,6.20
2023-05-02T20:28:54.094Z,5.30
2023-05-02T20:31:22.444Z,5.00
2023-05-02T20:33:51.199Z,5.13
2023-05-02T20:36:19.394Z,4.00
2023-05-02T20:38:48.801Z,5.60
2023-05-02T20:41:17.771Z,6.00
2023-05-02T20:43:48.580Z,5.00
2023-05-02T20:46:21.272Z,4.83
2023-05-02T20:48:49.578Z,4.30
2023-05-02T20:51:17.766Z,4.13
2023-05-02T20:53:45.973Z,3.67
2023-05-02T20:56:14.312Z,5.67
2023-05-02T20:58:42.514Z,4.37
2023-05-02T21:01:11.657Z,7.20
2023-05-02T21:03:41.354Z,5.80
2023-05-02T21:06:09.675Z,4.90
2023-05-02T21:08:37.951Z,5.53
2023-05-02T21:11:13.909Z,7.70
2023-05-02T21:13:42.183Z,6.40
2023-05-02T21:16:17.625Z,5.13
2023-05-02T21:18:47.964Z,4.57
2023-05-02T21:21:16.241Z,5.37
2023-05-02T21:23:44.846Z,4.87
2023-05-02T21:26:13.253Z,3.90
2023-05-02T21:28:41.583Z,3.80
2023-05-02T21:31:09.864Z,4.30
2023-05-02T21:33:38.272Z,5.27
2023-05-02T21:36:08.474Z,4.03
2023-05-02T21:38:36.700Z,3.63
2023-05-02T21:41:05.982Z,4.00
2023-05-02T21:43:37.908Z,4.33
2023-05-02T21:46:06.241Z,3.90
2023-05-02T21:48:34.971Z,3.90
2023-05-02T21:51:09.080Z,4.27
2023-05-02T21:53:37.421Z,5.10
2023-05-02T21:56:07.069Z,4.07
2023-05-02T21:58:35.443Z,5.20
2023-05-02T22:01:03.730Z,4.33
2023-05-02T22:03:33.856Z,3.03
2023-05-02T22:06:06.047Z,3.67
2023-05-02T22:08:36.363Z,5.13
2023-05-02T22:11:09.343Z,6.57
2023-05-02T22:13:37.974Z,4.50
2023-05-02T22:16:08.152Z,4.20
2023-05-02T22:18:37.030Z,4.73
2023-05-02T22:21:05.389Z,3.13
2023-05-02T22:23:34.934Z,2.63
2023-05-02T22:26:03.075Z,5.53
2023-05-02T22:28:31.371Z,6.20
2023-05-02T22:30:59.525Z,3.20
2023-05-02T22:33:27.707Z,3.00
2023-05-02T22:35:57.011Z,3.00
2023-05-02T22:38:25.222Z,4.10
2023-05-02T22:40:54.820Z,5.43
2023-05-02T22:43:22.994Z,5.13
2023-05-02T22:45:51.336Z,5.37
2023-05-02T22:48:19.635Z,3.30
2023-05-02T22:50:48.760Z,4.80
2023-05-02T22:53:21.757Z,4.00
2023-05-02T22:55:50.044Z,3.17
2023-05-02T22:58:19.750Z,2.97
2023-05-02T23:00:47.993Z,3.97
2023-05-02T23:03:16.222Z,3.20
2023-05-02T23:05:44.527Z,3.13
2023-05-02T23:08:12.716Z,3.13
2023-05-02T23:10:40.991Z,4.20
2023-05-02T23:13:09.242Z,3.43
2023-05-02T23:15:40.249Z,2.57
2023-05-02T23:18:08.677Z,3.10
2023-05-02T23:20:36.925Z,3.37
2023-05-02T23:23:05.307Z,3.30
2023-05-02T23:25:36.011Z,2.90
2023-05-02T23:28:04.336Z,3.60
2023-05-02T23:30:33.230Z,3.37
2023-05-02T23:33:02.945Z,3.00
2023-05-02T23:35:32.382Z,2.60
2023-05-02T23:38:01.154Z,2.63
2023-05-02T23:40:29.561Z,3.00
2023-05-02T23:42:57.775Z,3.63
2023-05-02T23:45:26.031Z,2.53
2023-05-02T23:47:54.212Z,3.40
2023-05-02T23:50:23.808Z,3.93
2023-05-02T23:52:56.430Z,3.70
2023-05-02T23:55:24.646Z,5.50
2023-05-02T23:57:52.873Z,3.67
